sensor_id;sensor_type;location;lat;lon;timestamp;temperature;humidity
14057;DHT22;7103;54.300;10.180;2023-02-28T00:00:37;4.30;1.00
14057;DHT22;7103;54.300;10.180;2023-02-28T00:03:05;4.30;1.00
14057;DHT22;7103;54.300;10.180;2023-02-28T00:05:32;4.20;1.00
14057;DHT22;7103;54.300;10.180;2023-02-28T00:07:58;4.20;1.00
14057;DHT22;7103;54.300;10.180;2023-02-28T00:10:28;4.20;1.00
14057;DHT22;7103;54.300;10.180;2023-02-28T00:12:59;4.20;1.00
14057;DHT22;7103;54.300;10.180;2023-02-28T00:15:26;4.20;1.00
14057;DHT22;7103;54.300;10.180;2023-02-28T00:17:53;4.10;1.00
14057;DHT22;7103;54.300;10.180;2023-02-28T00:20:20;4.30;1.00
14057;DHT22;7103;54.300;10.180;2023-02-28T00:22:50;4.20;1.00
14057;DHT22;7103;54.300;10.180;2023-02-28T00:25:20;4.20;1.00
14057;DHT22;7103;54.300;10.180;2023-02-28T00:27:48;4.20;1.00
14057;DHT22;7103;54.300;10.180;2023-02-28T00:30:20;4.20;1.00
14057;DHT22;7103;54.300;10.180;2023-02-28T00:32:47;4.20;1.00
14057;DHT22;7103;54.300;10.180;2023-02-28T00:35:15;4.20;1.00
14057;DHT22;7103;54.300;10.180;2023-02-28T00:37:42;4.30;1.00
14057;DHT22;7103;54.300;10.180;2023-02-28T00:40:10;4.40;1.00
14057;DHT22;7103;54.300;10.180;2023-02-28T00:42:38;4.30;1.00
14057;DHT22;7103;54.300;10.180;2023-02-28T00:45:05;4.30;1.00
14057;DHT22;7103;54.300;10.180;2023-02-28T00:47:32;4.30;1.00
14057;DHT22;7103;54.300;10.180;2023-02-28T00:50:00;4.30;1.00
14057;DHT22;7103;54.300;10.180;2023-02-28T00:52:26;4.30;1.00
14057;DHT22;7103;54.300;10.180;2023-02-28T00:54:54;4.30;1.00
14057;DHT22;7103;54.300;10.180;2023-02-28T00:57:21;4.30;1.00
14057;DHT22;7103;54.300;10.180;2023-02-28T00:59:48;4.30;1.00
14057;DHT22;7103;54.300;10.180;2023-02-28T01:02:15;4.30;1.00
14057;DHT22;7103;54.300;10.180;2023-02-28T01:04:42;4.30;1.00
14057;DHT22;7103;54.300;10.180;2023-02-28T01:07:09;4.30;1.00
14057;DHT22;7103;54.300;10.180;2023-02-28T01:09:36;4.30;1.00
14057;DHT22;7103;54.300;10.180;2023-02-28T01:12:03;4.20;1.00
14057;DHT22;7103;54.300;10.180;2023-02-28T01:14:30;4.20;1.00
14057;DHT22;7103;54.300;10.180;2023-02-28T01:16:57;4.10;1.00
14057;DHT22;7103;54.300;10.180;2023-02-28T01:19:23;4.10;1.00
14057;DHT22;7103;54.300;10.180;2023-02-28T01:21:50;4.10;1.00
14057;DHT22;7103;54.300;10.180;2023-02-28T01:24:17;4.10;1.00
14057;DHT22;7103;54.300;10.180;2023-02-28T01:26:44;4.00;1.00
14057;DHT22;7103;54.300;10.180;2023-02-28T01:29:11;4.10;1.00
14057;DHT22;7103;54.300;10.180;2023-02-28T01:31:38;4.10;1.00
14057;DHT22;7103;54.300;10.180;2023-02-28T01:34:05;4.10;1.00
14057;DHT22;7103;54.300;10.180;2023-02-28T01:36:32;4.00;1.00
14057;DHT22;7103;54.300;10.180;2023-02-28T01:38:59;4.00;1.00
14057;DHT22;7103;54.300;10.180;2023-02-28T01:41:28;4.00;1.00
14057;DHT22;7103;54.300;10.180;2023-02-28T01:47:11;4.10;1.00
14057;DHT22;7103;54.300;10.180;2023-02-28T01:49:39;4.20;1.00
14057;DHT22;7103;54.300;10.180;2023-02-28T01:52:06;4.10;1.00
14057;DHT22;7103;54.300;10.180;2023-02-28T01:54:34;4.00;1.00
14057;DHT22;7103;54.300;10.180;2023-02-28T01:57:05;4.00;1.00
14057;DHT22;7103;54.300;10.180;2023-02-28T01:59:39;4.00;1.00
14057;DHT22;7103;54.300;10.180;2023-02-28T02:02:12;3.90;1.00
14057;DHT22;7103;54.300;10.180;2023-02-28T02:04:45;3.80;1.00
14057;DHT22;7103;54.300;10.180;2023-02-28T02:07:15;3.80;1.00
14057;DHT22;7103;54.300;10.180;2023-02-28T02:09:42;3.70;1.00
14057;DHT22;7103;54.300;10.180;2023-02-28T02:12:27;3.60;1.00
14057;DHT22;7103;54.300;10.180;2023-02-28T02:15:13;3.50;1.00
14057;DHT22;7103;54.300;10.180;2023-02-28T02:17:46;3.50;1.00
14057;DHT22;7103;54.300;10.180;2023-02-28T02:42:31;3.00;1.00
14057;DHT22;7103;54.300;10.180;2023-02-28T02:45:03;3.00;1.00
14057;DHT22;7103;54.300;10.180;2023-02-28T02:47:33;3.00;1.00
14057;DHT22;7103;54.300;10.180;2023-02-28T02:50:04;3.00;1.00
14057;DHT22;7103;54.300;10.180;2023-02-28T02:56:43;2.90;1.00
14057;DHT22;7103;54.300;10.180;2023-02-28T02:59:13;2.90;1.00
14057;DHT22;7103;54.300;10.180;2023-02-28T03:01:55;3.00;1.00
14057;DHT22;7103;54.300;10.180;2023-02-28T03:04:24;3.00;1.00
14057;DHT22;7103;54.300;10.180;2023-02-28T03:06:53;3.00;1.00
14057;DHT22;7103;54.300;10.180;2023-02-28T03:09:22;2.90;2.30
14057;DHT22;7103;54.300;10.180;2023-02-28T03:11:49;2.90;3.40
14057;DHT22;7103;54.300;10.180;2023-02-28T03:25:29;2.70;17.00
14057;DHT22;7103;54.300;10.180;2023-02-28T03:33:12;2.60;16.90
14057;DHT22;7103;54.300;10.180;2023-02-28T03:35:44;2.60;17.00
14057;DHT22;7103;54.300;10.180;2023-02-28T03:38:23;2.60;24.00
14057;DHT22;7103;54.300;10.180;2023-02-28T03:41:24;2.60;26.50
14057;DHT22;7103;54.300;10.180;2023-02-28T03:44:07;2.60;27.60
14057;DHT22;7103;54.300;10.180;2023-02-28T03:46:38;2.50;27.50
14057;DHT22;7103;54.300;10.180;2023-02-28T03:49:29;2.40;28.40
14057;DHT22;7103;54.300;10.180;2023-02-28T03:51:59;2.40;32.70
14057;DHT22;7103;54.300;10.180;2023-02-28T03:54:32;2.40;36.00
14057;DHT22;7103;54.300;10.180;2023-02-28T03:57:03;2.40;38.80
14057;DHT22;7103;54.300;10.180;2023-02-28T03:59:43;2.40;37.30
14057;DHT22;7103;54.300;10.180;2023-02-28T04:02:11;2.30;34.10
14057;DHT22;7103;54.300;10.180;2023-02-28T04:04:39;2.20;33.70
14057;DHT22;7103;54.300;10.180;2023-02-28T04:07:11;2.20;36.40
14057;DHT22;7103;54.300;10.180;2023-02-28T04:09:39;2.20;36.00
14057;DHT22;7103;54.300;10.180;2023-02-28T04:12:06;2.20;38.90
14057;DHT22;7103;54.300;10.180;2023-02-28T04:14:33;2.30;43.50
14057;DHT22;7103;54.300;10.180;2023-02-28T04:16:59;2.20;40.10
14057;DHT22;7103;54.300;10.180;2023-02-28T04:19:26;2.10;37.50
14057;DHT22;7103;54.300;10.180;2023-02-28T04:21:53;2.10;41.30
14057;DHT22;7103;54.300;10.180;2023-02-28T04:24:25;2.00;42.00
14057;DHT22;7103;54.300;10.180;2023-02-28T04:26:54;2.00;44.70
14057;DHT22;7103;54.300;10.180;2023-02-28T04:29:27;2.00;45.80
14057;DHT22;7103;54.300;10.180;2023-02-28T04:31:55;2.00;48.80
14057;DHT22;7103;54.300;10.180;2023-02-28T04:34:28;1.90;46.80
14057;DHT22;7103;54.300;10.180;2023-02-28T04:36:55;1.80;43.10
14057;DHT22;7103;54.300;10.180;2023-02-28T04:39:38;1.60;38.60
14057;DHT22;7103;54.300;10.180;2023-02-28T04:42:05;1.60;34.20
14057;DHT22;7103;54.300;10.180;2023-02-28T04:44:32;1.50;32.70
14057;DHT22;7103;54.300;10.180;2023-02-28T04:47:00;1.30;29.90
14057;DHT22;7103;54.300;10.180;2023-02-28T04:49:26;1.20;28.50
14057;DHT22;7103;54.300;10.180;2023-02-28T04:51:53;1.10;27.20
14057;DHT22;7103;54.300;10.180;2023-02-28T04:54:20;1.00;26.30
14057;DHT22;7103;54.300;10.180;2023-02-28T04:56:47;0.90;25.70
14057;DHT22;7103;54.300;10.180;2023-02-28T04:59:16;0.90;26.60
14057;DHT22;7103;54.300;10.180;2023-02-28T05:01:47;0.90;28.90
14057;DHT22;7103;54.300;10.180;2023-02-28T05:04:14;0.80;31.80
14057;DHT22;7103;54.300;10.180;2023-02-28T05:06:41;0.90;42.60
14057;DHT22;7103;54.300;10.180;2023-02-28T05:09:08;0.90;54.60
14057;DHT22;7103;54.300;10.180;2023-02-28T05:11:38;0.90;62.00
14057;DHT22;7103;54.300;10.180;2023-02-28T05:14:12;0.90;68.20
14057;DHT22;7103;54.300;10.180;2023-02-28T05:16:39;0.80;71.50
14057;DHT22;7103;54.300;10.180;2023-02-28T05:19:06;0.80;71.50
14057;DHT22;7103;54.300;10.180;2023-02-28T05:21:35;0.70;72.70
14057;DHT22;7103;54.300;10.180;2023-02-28T05:24:05;0.60;73.70
14057;DHT22;7103;54.300;10.180;2023-02-28T05:26:40;0.50;71.20
14057;DHT22;7103;54.300;10.180;2023-02-28T05:29:08;0.50;71.30
14057;DHT22;7103;54.300;10.180;2023-02-28T05:31:36;0.40;71.30
14057;DHT22;7103;54.300;10.180;2023-02-28T05:34:03;0.40;71.20
14057;DHT22;7103;54.300;10.180;2023-02-28T05:36:33;0.30;76.80
14057;DHT22;7103;54.300;10.180;2023-02-28T05:39:00;0.20;80.30
14057;DHT22;7103;54.300;10.180;2023-02-28T05:41:27;0.20;83.20
14057;DHT22;7103;54.300;10.180;2023-02-28T05:43:54;0.20;87.50
14057;DHT22;7103;54.300;10.180;2023-02-28T05:46:21;0.10;90.50
14057;DHT22;7103;54.300;10.180;2023-02-28T05:48:48;0.10;92.60
14057;DHT22;7103;54.300;10.180;2023-02-28T05:51:16;0.20;95.20
14057;DHT22;7103;54.300;10.180;2023-02-28T05:53:43;0.20;98.20
14057;DHT22;7103;54.300;10.180;2023-02-28T05:56:10;0.20;99.90
14057;DHT22;7103;54.300;10.180;2023-02-28T05:58:37;0.50;99.90
14057;DHT22;7103;54.300;10.180;2023-02-28T06:01:40;0.80;99.90
14057;DHT22;7103;54.300;10.180;2023-02-28T06:04:10;1.00;99.90
14057;DHT22;7103;54.300;10.180;2023-02-28T06:06:54;1.00;99.90
14057;DHT22;7103;54.300;10.180;2023-02-28T06:09:24;1.00;99.90
14057;DHT22;7103;54.300;10.180;2023-02-28T06:11:51;1.00;99.90
14057;DHT22;7103;54.300;10.180;2023-02-28T06:14:19;1.00;99.90
14057;DHT22;7103;54.300;10.180;2023-02-28T06:16:46;1.00;99.90
14057;DHT22;7103;54.300;10.180;2023-02-28T06:19:13;1.00;99.90
14057;DHT22;7103;54.300;10.180;2023-02-28T06:21:42;0.70;99.90
14057;DHT22;7103;54.300;10.180;2023-02-28T06:24:09;0.60;99.90
14057;DHT22;7103;54.300;10.180;2023-02-28T06:26:36;0.70;99.90
14057;DHT22;7103;54.300;10.180;2023-02-28T06:29:04;0.80;99.90
14057;DHT22;7103;54.300;10.180;2023-02-28T06:31:30;0.90;99.90
14057;DHT22;7103;54.300;10.180;2023-02-28T06:33:58;0.80;99.90
14057;DHT22;7103;54.300;10.180;2023-02-28T06:36:25;0.80;99.90
14057;DHT22;7103;54.300;10.180;2023-02-28T06:38:52;0.70;99.90
14057;DHT22;7103;54.300;10.180;2023-02-28T06:41:26;0.70;99.90
14057;DHT22;7103;54.300;10.180;2023-02-28T06:43:54;0.60;99.90
14057;DHT22;7103;54.300;10.180;2023-02-28T06:46:21;0.50;99.90
14057;DHT22;7103;54.300;10.180;2023-02-28T06:48:49;0.50;99.90
14057;DHT22;7103;54.300;10.180;2023-02-28T06:51:18;0.40;99.90
14057;DHT22;7103;54.300;10.180;2023-02-28T06:53:47;0.30;99.90
14057;DHT22;7103;54.300;10.180;2023-02-28T06:56:15;0.30;99.90
14057;DHT22;7103;54.300;10.180;2023-02-28T06:58:47;0.30;99.90
14057;DHT22;7103;54.300;10.180;2023-02-28T07:01:15;0.30;99.90
14057;DHT22;7103;54.300;10.180;2023-02-28T07:03:42;0.30;99.90
14057;DHT22;7103;54.300;10.180;2023-02-28T07:06:09;0.30;99.90
14057;DHT22;7103;54.300;10.180;2023-02-28T07:08:35;0.40;99.90
14057;DHT22;7103;54.300;10.180;2023-02-28T07:11:03;0.40;99.90
14057;DHT22;7103;54.300;10.180;2023-02-28T07:13:30;0.40;99.90
14057;DHT22;7103;54.300;10.180;2023-02-28T07:16:05;0.40;99.90
14057;DHT22;7103;54.300;10.180;2023-02-28T07:18:32;0.50;99.90
14057;DHT22;7103;54.300;10.180;2023-02-28T07:21:02;0.50;99.90
14057;DHT22;7103;54.300;10.180;2023-02-28T07:23:29;0.50;99.90
14057;DHT22;7103;54.300;10.180;2023-02-28T07:25:56;0.60;99.90
14057;DHT22;7103;54.300;10.180;2023-02-28T07:28:23;0.80;99.90
14057;DHT22;7103;54.300;10.180;2023-02-28T07:30:50;0.90;99.90
14057;DHT22;7103;54.300;10.180;2023-02-28T07:33:17;1.10;99.90
14057;DHT22;7103;54.300;10.180;2023-02-28T07:35:44;1.20;99.90
14057;DHT22;7103;54.300;10.180;2023-02-28T07:38:11;1.20;99.90
14057;DHT22;7103;54.300;10.180;2023-02-28T07:40:40;1.30;99.90
14057;DHT22;7103;54.300;10.180;2023-02-28T07:43:07;1.30;99.90
14057;DHT22;7103;54.300;10.180;2023-02-28T07:45:34;1.40;99.90
14057;DHT22;7103;54.300;10.180;2023-02-28T07:48:01;1.40;99.90
14057;DHT22;7103;54.300;10.180;2023-02-28T07:50:28;1.60;99.90
14057;DHT22;7103;54.300;10.180;2023-02-28T07:53:00;1.80;99.90
14057;DHT22;7103;54.300;10.180;2023-02-28T07:55:27;1.70;99.90
14057;DHT22;7103;54.300;10.180;2023-02-28T07:57:54;1.80;99.90
14057;DHT22;7103;54.300;10.180;2023-02-28T08:00:23;1.90;99.90
14057;DHT22;7103;54.300;10.180;2023-02-28T08:02:50;2.10;99.90
14057;DHT22;7103;54.300;10.180;2023-02-28T08:05:17;2.10;99.90
14057;DHT22;7103;54.300;10.180;2023-02-28T08:07:49;2.20;94.90
14057;DHT22;7103;54.300;10.180;2023-02-28T08:10:16;2.20;82.10
14057;DHT22;7103;54.300;10.180;2023-02-28T08:12:43;2.30;72.90
14057;DHT22;7103;54.300;10.180;2023-02-28T08:15:10;2.30;63.50
14057;DHT22;7103;54.300;10.180;2023-02-28T08:17:37;2.40;53.50
14057;DHT22;7103;54.300;10.180;2023-02-28T08:20:04;2.40;43.40
14057;DHT22;7103;54.300;10.180;2023-02-28T08:22:31;2.40;34.10
14057;DHT22;7103;54.300;10.180;2023-02-28T08:24:58;2.40;28.50
14057;DHT22;7103;54.300;10.180;2023-02-28T08:27:25;2.40;24.20
14057;DHT22;7103;54.300;10.180;2023-02-28T08:29:51;2.30;16.80
14057;DHT22;7103;54.300;10.180;2023-02-28T08:32:18;2.40;23.10
14057;DHT22;7103;54.300;10.180;2023-02-28T08:34:55;2.60;27.50
14057;DHT22;7103;54.300;10.180;2023-02-28T08:37:23;2.90;33.90
14057;DHT22;7103;54.300;10.180;2023-02-28T08:39:50;4.00;65.40
14057;DHT22;7103;54.300;10.180;2023-02-28T08:42:20;5.20;18.80
14057;DHT22;7103;54.300;10.180;2023-02-28T08:44:47;6.90;1.00
14057;DHT22;7103;54.300;10.180;2023-02-28T08:47:14;8.20;1.00
14057;DHT22;7103;54.300;10.180;2023-02-28T08:49:40;8.90;1.00
14057;DHT22;7103;54.300;10.180;2023-02-28T08:52:07;9.70;1.00
14057;DHT22;7103;54.300;10.180;2023-02-28T08:54:35;10.40;1.00
14057;DHT22;7103;54.300;10.180;2023-02-28T08:57:03;11.20;1.00
14057;DHT22;7103;54.300;10.180;2023-02-28T08:59:30;11.20;1.00
14057;DHT22;7103;54.300;10.180;2023-02-28T09:01:56;11.70;1.00
14057;DHT22;7103;54.300;10.180;2023-02-28T09:04:23;11.50;1.00
14057;DHT22;7103;54.300;10.180;2023-02-28T09:06:51;11.40;1.00
14057;DHT22;7103;54.300;10.180;2023-02-28T09:09:18;11.50;1.00
14057;DHT22;7103;54.300;10.180;2023-02-28T09:11:44;11.40;1.00
14057;DHT22;7103;54.300;10.180;2023-02-28T09:14:11;11.50;1.00
14057;DHT22;7103;54.300;10.180;2023-02-28T09:16:38;11.70;1.00
14057;DHT22;7103;54.300;10.180;2023-02-28T09:19:05;11.70;1.00
14057;DHT22;7103;54.300;10.180;2023-02-28T09:21:32;11.90;1.00
14057;DHT22;7103;54.300;10.180;2023-02-28T09:23:59;11.80;1.00
14057;DHT22;7103;54.300;10.180;2023-02-28T09:26:27;11.90;1.00
14057;DHT22;7103;54.300;10.180;2023-02-28T09:29:08;12.10;1.00
14057;DHT22;7103;54.300;10.180;2023-02-28T09:31:35;11.90;1.00
14057;DHT22;7103;54.300;10.180;2023-02-28T09:34:04;12.10;1.00
14057;DHT22;7103;54.300;10.180;2023-02-28T09:36:31;12.00;1.00
14057;DHT22;7103;54.300;10.180;2023-02-28T09:39:10;12.10;1.00
14057;DHT22;7103;54.300;10.180;2023-02-28T09:41:43;12.30;1.00
14057;DHT22;7103;54.300;10.180;2023-02-28T09:44:42;12.50;1.00
14057;DHT22;7103;54.300;10.180;2023-02-28T09:49:58;12.30;1.00
14057;DHT22;7103;54.300;10.180;2023-02-28T09:52:31;12.20;1.00
14057;DHT22;7103;54.300;10.180;2023-02-28T09:55:20;12.40;1.00
14057;DHT22;7103;54.300;10.180;2023-02-28T09:57:50;12.50;1.00
14057;DHT22;7103;54.300;10.180;2023-02-28T10:00:46;12.40;1.00
14057;DHT22;7103;54.300;10.180;2023-02-28T10:06:29;12.40;1.00
14057;DHT22;7103;54.300;10.180;2023-02-28T10:09:04;12.50;1.00
14057;DHT22;7103;54.300;10.180;2023-02-28T10:11:37;12.60;1.00
14057;DHT22;7103;54.300;10.180;2023-02-28T10:14:15;12.50;1.00
14057;DHT22;7103;54.300;10.180;2023-02-28T10:16:52;12.50;1.00
14057;DHT22;7103;54.300;10.180;2023-02-28T10:22:16;12.50;1.00
14057;DHT22;7103;54.300;10.180;2023-02-28T10:24:49;12.50;1.00
14057;DHT22;7103;54.300;10.180;2023-02-28T10:27:19;12.50;1.00
14057;DHT22;7103;54.300;10.180;2023-02-28T10:29:48;12.50;1.00
14057;DHT22;7103;54.300;10.180;2023-02-28T10:32:18;12.40;1.00
14057;DHT22;7103;54.300;10.180;2023-02-28T10:35:01;12.70;1.00
14057;DHT22;7103;54.300;10.180;2023-02-28T10:37:33;12.70;1.00
14057;DHT22;7103;54.300;10.180;2023-02-28T10:40:06;12.80;1.00
14057;DHT22;7103;54.300;10.180;2023-02-28T10:45:31;12.30;1.00
14057;DHT22;7103;54.300;10.180;2023-02-28T10:53:22;12.60;1.00
14057;DHT22;7103;54.300;10.180;2023-02-28T10:55:58;12.60;1.00
14057;DHT22;7103;54.300;10.180;2023-02-28T10:58:29;12.10;1.00
14057;DHT22;7103;54.300;10.180;2023-02-28T11:00:57;12.20;1.00
14057;DHT22;7103;54.300;10.180;2023-02-28T11:03:32;12.00;1.00
14057;DHT22;7103;54.300;10.180;2023-02-28T11:06:08;12.10;1.00
14057;DHT22;7103;54.300;10.180;2023-02-28T11:08:54;12.40;1.00
14057;DHT22;7103;54.300;10.180;2023-02-28T11:11:25;12.50;1.00
14057;DHT22;7103;54.300;10.180;2023-02-28T11:14:04;12.10;1.00
14057;DHT22;7103;54.300;10.180;2023-02-28T11:16:34;12.30;1.00
14057;DHT22;7103;54.300;10.180;2023-02-28T11:19:04;12.30;1.00
14057;DHT22;7103;54.300;10.180;2023-02-28T11:21:36;12.00;1.00
14057;DHT22;7103;54.300;10.180;2023-02-28T11:24:14;11.90;1.00
14057;DHT22;7103;54.300;10.180;2023-02-28T11:26:46;12.10;1.00
14057;DHT22;7103;54.300;10.180;2023-02-28T11:29:24;12.30;1.00
14057;DHT22;7103;54.300;10.180;2023-02-28T11:32:14;12.70;1.00
14057;DHT22;7103;54.300;10.180;2023-02-28T11:34:43;12.30;1.00
14057;DHT22;7103;54.300;10.180;2023-02-28T11:37:16;12.50;1.00
14057;DHT22;7103;54.300;10.180;2023-02-28T11:39:45;12.20;1.00
14057;DHT22;7103;54.300;10.180;2023-02-28T11:42:29;12.30;1.00
14057;DHT22;7103;54.300;10.180;2023-02-28T11:48:04;12.30;1.00
14057;DHT22;7103;54.300;10.180;2023-02-28T11:53:45;12.30;1.00
14057;DHT22;7103;54.300;10.180;2023-02-28T12:07:51;12.20;1.00
14057;DHT22;7103;54.300;10.180;2023-02-28T12:10:23;12.20;1.00
14057;DHT22;7103;54.300;10.180;2023-02-28T12:26:45;11.50;1.00
14057;DHT22;7103;54.300;10.180;2023-02-28T12:29:25;11.60;1.00
14057;DHT22;7103;54.300;10.180;2023-02-28T12:31:59;11.60;1.00
14057;DHT22;7103;54.300;10.180;2023-02-28T12:34:31;11.50;1.00
14057;DHT22;7103;54.300;10.180;2023-02-28T12:37:03;11.60;1.00
14057;DHT22;7103;54.300;10.180;2023-02-28T12:39:40;11.60;1.00
14057;DHT22;7103;54.300;10.180;2023-02-28T12:44:57;11.70;1.00
14057;DHT22;7103;54.300;10.180;2023-02-28T12:47:24;11.70;1.00
14057;DHT22;7103;54.300;10.180;2023-02-28T12:58:28;11.30;1.00
14057;DHT22;7103;54.300;10.180;2023-02-28T13:07:23;11.10;1.00
14057;DHT22;7103;54.300;10.180;2023-02-28T13:09:51;11.20;1.00
14057;DHT22;7103;54.300;10.180;2023-02-28T13:12:19;11.20;1.00
14057;DHT22;7103;54.300;10.180;2023-02-28T13:14:47;11.30;1.00
14057;DHT22;7103;54.300;10.180;2023-02-28T13:17:19;10.90;1.00
14057;DHT22;7103;54.300;10.180;2023-02-28T13:19:58;10.60;1.00
14057;DHT22;7103;54.300;10.180;2023-02-28T13:24:56;10.80;1.00
14057;DHT22;7103;54.300;10.180;2023-02-28T13:27:35;10.70;1.00
14057;DHT22;7103;54.300;10.180;2023-02-28T13:33:46;10.80;1.00
14057;DHT22;7103;54.300;10.180;2023-02-28T13:36:27;10.70;1.00
14057;DHT22;7103;54.300;10.180;2023-02-28T13:38:59;10.60;1.00
14057;DHT22;7103;54.300;10.180;2023-02-28T14:02:45;10.40;1.00
14057;DHT22;7103;54.300;10.180;2023-02-28T14:05:20;10.20;1.00
14057;DHT22;7103;54.300;10.180;2023-02-28T14:07:56;10.50;1.00
14057;DHT22;7103;54.300;10.180;2023-02-28T14:10:30;10.30;1.00
14057;DHT22;7103;54.300;10.180;2023-02-28T14:13:02;10.20;1.00
14057;DHT22;7103;54.300;10.180;2023-02-28T14:15:48;10.20;1.00
14057;DHT22;7103;54.300;10.180;2023-02-28T14:20:56;10.10;1.00
14057;DHT22;7103;54.300;10.180;2023-02-28T14:23:50;10.00;1.00
14057;DHT22;7103;54.300;10.180;2023-02-28T14:32:15;9.70;1.00
14057;DHT22;7103;54.300;10.180;2023-02-28T14:37:38;9.90;1.00
14057;DHT22;7103;54.300;10.180;2023-02-28T14:40:16;9.80;1.00
14057;DHT22;7103;54.300;10.180;2023-02-28T14:42:54;9.90;1.00
14057;DHT22;7103;54.300;10.180;2023-02-28T14:45:22;9.80;1.00
14057;DHT22;7103;54.300;10.180;2023-02-28T14:47:51;9.70;1.00
14057;DHT22;7103;54.300;10.180;2023-02-28T14:50:23;9.70;1.00
14057;DHT22;7103;54.300;10.180;2023-02-28T14:52:53;9.70;1.00
14057;DHT22;7103;54.300;10.180;2023-02-28T14:55:24;9.50;1.00
14057;DHT22;7103;54.300;10.180;2023-02-28T14:58:00;9.40;1.00
14057;DHT22;7103;54.300;10.180;2023-02-28T15:00:32;9.50;1.00
14057;DHT22;7103;54.300;10.180;2023-02-28T15:03:11;9.70;1.00
14057;DHT22;7103;54.300;10.180;2023-02-28T15:05:51;9.60;1.00
14057;DHT22;7103;54.300;10.180;2023-02-28T15:08:19;9.40;1.00
14057;DHT22;7103;54.300;10.180;2023-02-28T15:13:30;9.40;1.00
14057;DHT22;7103;54.300;10.180;2023-02-28T15:16:07;9.40;1.00
14057;DHT22;7103;54.300;10.180;2023-02-28T15:21:55;9.40;1.00
14057;DHT22;7103;54.300;10.180;2023-02-28T15:24:10;9.30;1.00
14057;DHT22;7103;54.300;10.180;2023-02-28T15:26:43;9.40;1.00
14057;DHT22;7103;54.300;10.180;2023-02-28T15:29:19;9.30;1.00
14057;DHT22;7103;54.300;10.180;2023-02-28T15:32:07;9.20;1.00
14057;DHT22;7103;54.300;10.180;2023-02-28T15:34:43;9.10;1.00
14057;DHT22;7103;54.300;10.180;2023-02-28T15:37:40;9.00;1.00
14057;DHT22;7103;54.300;10.180;2023-02-28T15:40:17;9.00;1.00
14057;DHT22;7103;54.300;10.180;2023-02-28T15:43:07;9.00;1.00
14057;DHT22;7103;54.300;10.180;2023-02-28T15:48:31;8.70;1.00
14057;DHT22;7103;54.300;10.180;2023-02-28T15:53:48;8.70;1.00
14057;DHT22;7103;54.300;10.180;2023-02-28T15:56:28;8.70;1.00
14057;DHT22;7103;54.300;10.180;2023-02-28T15:59:01;8.60;1.00
14057;DHT22;7103;54.300;10.180;2023-02-28T16:01:31;8.60;1.00
14057;DHT22;7103;54.300;10.180;2023-02-28T16:04:14;8.60;1.00
14057;DHT22;7103;54.300;10.180;2023-02-28T16:06:45;8.40;1.00
14057;DHT22;7103;54.300;10.180;2023-02-28T16:09:16;8.30;1.00
14057;DHT22;7103;54.300;10.180;2023-02-28T16:11:46;8.30;1.00
14057;DHT22;7103;54.300;10.180;2023-02-28T16:14:22;8.20;1.00
14057;DHT22;7103;54.300;10.180;2023-02-28T16:16:56;8.20;1.00
14057;DHT22;7103;54.300;10.180;2023-02-28T16:19:24;8.10;1.00
14057;DHT22;7103;54.300;10.180;2023-02-28T16:21:50;8.10;1.00
14057;DHT22;7103;54.300;10.180;2023-02-28T16:24:17;8.00;1.00
14057;DHT22;7103;54.300;10.180;2023-02-28T16:26:48;8.00;1.00
14057;DHT22;7103;54.300;10.180;2023-02-28T16:29:29;7.80;1.00
14057;DHT22;7103;54.300;10.180;2023-02-28T16:31:57;7.70;1.00
14057;DHT22;7103;54.300;10.180;2023-02-28T16:34:24;7.60;1.00
14057;DHT22;7103;54.300;10.180;2023-02-28T16:36:51;7.50;1.00
14057;DHT22;7103;54.300;10.180;2023-02-28T16:39:18;7.40;1.00
14057;DHT22;7103;54.300;10.180;2023-02-28T16:41:48;7.30;1.00
14057;DHT22;7103;54.300;10.180;2023-02-28T16:44:33;7.20;1.00
14057;DHT22;7103;54.300;10.180;2023-02-28T16:47:03;7.10;1.00
14057;DHT22;7103;54.300;10.180;2023-02-28T16:49:30;6.90;1.00
14057;DHT22;7103;54.300;10.180;2023-02-28T16:51:57;6.90;1.00
14057;DHT22;7103;54.300;10.180;2023-02-28T16:54:24;6.90;1.00
14057;DHT22;7103;54.300;10.180;2023-02-28T16:56:51;6.80;1.00
14057;DHT22;7103;54.300;10.180;2023-02-28T16:59:25;6.60;1.00
14057;DHT22;7103;54.300;10.180;2023-02-28T17:01:53;6.60;1.00
14057;DHT22;7103;54.300;10.180;2023-02-28T17:04:20;6.50;1.00
14057;DHT22;7103;54.300;10.180;2023-02-28T17:06:47;6.40;1.00
14057;DHT22;7103;54.300;10.180;2023-02-28T17:09:17;6.30;1.00
14057;DHT22;7103;54.300;10.180;2023-02-28T17:11:45;6.20;1.00
14057;DHT22;7103;54.300;10.180;2023-02-28T17:14:14;6.10;1.00
14057;DHT22;7103;54.300;10.180;2023-02-28T17:16:41;6.00;1.00
14057;DHT22;7103;54.300;10.180;2023-02-28T17:19:13;5.90;1.00
14057;DHT22;7103;54.300;10.180;2023-02-28T17:21:41;5.70;1.00
14057;DHT22;7103;54.300;10.180;2023-02-28T17:24:11;5.60;1.00
14057;DHT22;7103;54.300;10.180;2023-02-28T17:26:56;5.50;1.00
14057;DHT22;7103;54.300;10.180;2023-02-28T17:29:22;5.50;1.00
14057;DHT22;7103;54.300;10.180;2023-02-28T17:31:50;5.30;1.00
14057;DHT22;7103;54.300;10.180;2023-02-28T17:34:17;5.20;1.00
14057;DHT22;7103;54.300;10.180;2023-02-28T17:36:47;5.10;1.00
14057;DHT22;7103;54.300;10.180;2023-02-28T17:39:15;5.00;1.00
14057;DHT22;7103;54.300;10.180;2023-02-28T17:41:46;4.90;1.00
14057;DHT22;7103;54.300;10.180;2023-02-28T17:44:14;4.90;1.00
14057;DHT22;7103;54.300;10.180;2023-02-28T17:46:41;4.80;1.00
14057;DHT22;7103;54.300;10.180;2023-02-28T17:49:08;4.70;1.00
14057;DHT22;7103;54.300;10.180;2023-02-28T17:51:36;4.60;1.00
14057;DHT22;7103;54.300;10.180;2023-02-28T17:54:03;4.50;1.00
14057;DHT22;7103;54.300;10.180;2023-02-28T17:56:29;4.50;1.00
14057;DHT22;7103;54.300;10.180;2023-02-28T17:58:57;4.40;1.00
14057;DHT22;7103;54.300;10.180;2023-02-28T18:01:25;4.40;1.00
14057;DHT22;7103;54.300;10.180;2023-02-28T18:03:55;4.30;1.00
14057;DHT22;7103;54.300;10.180;2023-02-28T18:09:20;4.10;1.00
14057;DHT22;7103;54.300;10.180;2023-02-28T18:11:51;4.20;1.00
14057;DHT22;7103;54.300;10.180;2023-02-28T18:14:19;4.20;1.00
14057;DHT22;7103;54.300;10.180;2023-02-28T18:16:46;4.00;1.00
14057;DHT22;7103;54.300;10.180;2023-02-28T18:19:13;3.90;1.00
14057;DHT22;7103;54.300;10.180;2023-02-28T18:21:44;3.80;1.00
14057;DHT22;7103;54.300;10.180;2023-02-28T18:24:11;3.80;1.00
14057;DHT22;7103;54.300;10.180;2023-02-28T18:26:39;3.70;1.00
14057;DHT22;7103;54.300;10.180;2023-02-28T18:29:07;3.70;1.00
14057;DHT22;7103;54.300;10.180;2023-02-28T18:31:35;3.70;1.00
14057;DHT22;7103;54.300;10.180;2023-02-28T18:34:02;3.70;1.00
14057;DHT22;7103;54.300;10.180;2023-02-28T18:36:28;3.70;1.00
14057;DHT22;7103;54.300;10.180;2023-02-28T18:38:56;3.80;1.00
14057;DHT22;7103;54.300;10.180;2023-02-28T18:41:24;3.80;1.00
14057;DHT22;7103;54.300;10.180;2023-02-28T18:43:51;3.80;1.00
14057;DHT22;7103;54.300;10.180;2023-02-28T18:46:20;3.80;1.00
14057;DHT22;7103;54.300;10.180;2023-02-28T18:48:47;3.80;1.00
14057;DHT22;7103;54.300;10.180;2023-02-28T18:51:20;3.80;1.00
14057;DHT22;7103;54.300;10.180;2023-02-28T18:53:48;3.80;1.00
14057;DHT22;7103;54.300;10.180;2023-02-28T18:56:21;3.70;1.00
14057;DHT22;7103;54.300;10.180;2023-02-28T18:58:49;3.70;1.00